Alexander, West Virginia
Current Conditions -  °F | °C
As of 1:35 AM on Tuesday 21 Oct 2014 (Local Time) from KW22 Reporting Station
Clear Clear  
Wind Chill: 11°   Ceiling: Unl
Heat Index: 11°   Visibility: 10mi
Dew Point:   Wind: 8mph
Humidity: 82%   Direction: 210°SSW
Pressure: 29.9"   Gusts: NA
Location:  38.8347°N, 80.2578°W
Report Text: KW22 210535Z AUTO 21007KT 10SM CLR 11/08 A2990 RMK AO2
Loading
Personal Weather Stations






























Interactive Weather Map
Tropical Storm Tracking
New forecast layout! Learn more

10-Day Weather Forecast

Advertisements
Track Severe Weather on mobile